Time;durP1;ratioP1;P1;durP2;ratioP2;P2;SDS_P1;SDS_P2;PMS_P1;PMS_P2;Temp;Humidity;BMP_temperature;BMP_pressure;BME280_temperature;BME280_humidity;BME280_pressure;Samples;Min_cycle;Max_cycle;Signal;HPM_P1;HPM_P2
2021/10/31 00:01:34;;;;;;;61.90;37.40;;;6.10;78.70;;;;;;5055289;28;20094;-33
2021/10/31 00:04:00;;;;;;;83.72;47.47;;;6.10;77.90;;;;;;5055844;28;20037;-40
2021/10/31 00:06:25;;;;;;;85.63;45.58;;;6.10;77.90;;;;;;5055104;28;20036;-41
2021/10/31 00:08:51;;;;;;;75.53;40.70;;;6.00;78.00;;;;;;5055649;28;20028;-33
2021/10/31 00:11:17;;;;;;;73.35;42.45;;;5.90;78.10;;;;;;5055507;28;20095;-33
2021/10/31 00:13:43;;;;;;;81.22;44.13;;;5.90;78.90;;;;;;5055578;28;20047;-40
2021/10/31 00:16:09;;;;;;;76.57;42.38;;;5.90;78.30;;;;;;5055658;28;20025;-40
2021/10/31 00:18:35;;;;;;;65.85;37.97;;;5.90;78.30;;;;;;5055606;28;20029;-32
2021/10/31 00:21:00;;;;;;;63.25;35.33;;;5.90;78.90;;;;;;5055415;28;20463;-32
2021/10/31 00:23:26;;;;;;;57.88;33.83;;;5.90;78.30;;;;;;5055312;28;20401;-32
2021/10/31 00:25:52;;;;;;;59.88;33.83;;;5.90;78.30;;;;;;5055537;28;20112;-33
2021/10/31 00:28:18;;;;;;;64.68;35.63;;;5.90;78.30;;;;;;5055113;28;20028;-40
2021/10/31 00:30:44;;;;;;;61.80;33.58;;;5.90;78.30;;;;;;5055786;28;20246;-40
2021/10/31 00:33:10;;;;;;;63.45;34.40;;;5.90;78.10;;;;;;5055305;28;20086;-40
2021/10/31 00:35:36;;;;;;;64.30;37.38;;;5.90;78.10;;;;;;5055733;28;20037;-40
2021/10/31 00:38:02;;;;;;;62.47;35.03;;;5.80;78.10;;;;;;5055389;28;20048;-34
2021/10/31 00:40:28;;;;;;;55.88;33.55;;;5.80;77.80;;;;;;5055514;28;20029;-33
2021/10/31 00:42:54;;;;;;;56.00;34.10;;;5.80;77.90;;;;;;5055320;28;20036;-33
2021/10/31 00:45:20;;;;;;;57.97;33.60;;;5.80;78.10;;;;;;5055685;28;20064;-33
2021/10/31 00:47:45;;;;;;;58.80;33.95;;;5.70;78.10;;;;;;5055341;28;20029;-33
2021/10/31 00:50:11;;;;;;;61.97;33.88;;;5.80;78.20;;;;;;5055489;28;20029;-40
2021/10/31 00:52:37;;;;;;;55.50;32.22;;;5.70;78.20;;;;;;5055021;28;20398;-41
2021/10/31 00:55:04;;;;;;;55.08;32.72;;;5.70;78.20;;;;;;5055303;28;20061;-33
2021/10/31 00:57:31;;;;;;;51.83;29.38;;;5.70;78.20;;;;;;5054881;28;20064;-33
2021/10/31 00:59:58;;;;;;;59.35;33.03;;;5.70;78.00;;;;;;5055524;28;20116;-34
2021/10/31 01:02:24;;;;;;;54.45;31.08;;;5.70;77.80;;;;;;5054596;28;20108;-33
2021/10/31 01:04:56;;;;;;;57.85;34.85;;;5.70;77.80;;;;;;5055383;28;20029;-41
2021/10/31 01:07:47;;;;;;;63.30;36.75;;;5.70;77.90;;;;;;5058123;28;20295;-41
2021/10/31 01:10:27;;;;;;;55.22;33.58;;;5.70;78.30;;;;;;5059103;28;20107;-41
2021/10/31 01:13:19;;;;;;;71.22;41.08;;;5.70;78.70;;;;;;5058604;28;20029;-33
2021/10/31 01:16:23;;;;;;;57.65;32.22;;;5.60;79.20;;;;;;5059137;28;20099;-40
2021/10/31 01:19:09;;;;;;;57.55;34.47;;;5.60;79.30;;;;;;5058273;28;20076;-40
2021/10/31 01:21:55;;;;;;;56.40;33.28;;;5.60;79.50;;;;;;5058482;28;20317;-33
2021/10/31 01:24:52;;;;;;;62.20;33.75;;;5.60;79.50;;;;;;5058508;28;20025;-33
2021/10/31 01:27:47;;;;;;;59.83;35.55;;;5.60;79.40;;;;;;5058283;28;20090;-33
2021/10/31 01:30:38;;;;;;;66.60;38.00;;;5.60;79.30;;;;;;5058733;28;20458;-33
2021/10/31 01:33:24;;;;;;;69.43;38.70;;;5.60;79.10;;;;;;5058103;28;20041;-33
2021/10/31 01:35:52;;;;;;;65.80;38.38;;;5.60;79.30;;;;;;5057242;28;20037;-41
2021/10/31 01:38:40;;;;;;;66.50;39.25;;;5.60;79.30;;;;;;5058554;28;20103;-40
2021/10/31 01:41:25;;;;;;;71.53;36.83;;;5.60;79.00;;;;;;5058406;28;20061;-41
2021/10/31 01:44:45;;;;;;;63.13;36.80;;;5.60;78.60;;;;;;5058139;28;20033;-41
2021/10/31 01:47:10;;;;;;;56.25;33.88;;;5.50;78.30;;;;;;5055801;28;20369;-33
2021/10/31 01:49:46;;;;;;;56.53;35.20;;;5.50;78.30;;;;;;5057727;28;20040;-41
2021/10/31 01:52:22;;;;;;;57.83;34.97;;;5.40;78.20;;;;;;5057746;28;20021;-40
2021/10/31 01:55:04;;;;;;;58.22;35.13;;;5.40;78.10;;;;;;5057723;28;20052;-40
2021/10/31 01:57:32;;;;;;;62.95;37.38;;;5.40;78.00;;;;;;5057575;28;20029;-40
2021/10/31 02:00:06;;;;;;;64.53;35.72;;;5.40;78.00;;;;;;5058095;28;20037;-40
2021/10/31 02:02:37;;;;;;;60.63;36.17;;;5.40;77.90;;;;;;5057392;28;20083;-34
2021/10/31 02:05:04;;;;;;;51.75;33.42;;;5.30;77.90;;;;;;5057936;28;20025;-33
2021/10/31 02:07:31;;;;;;;57.03;33.15;;;5.30;77.70;;;;;;5057305;28;20085;-33
2021/10/31 02:09:59;;;;;;;58.80;34.50;;;5.30;77.60;;;;;;5057928;28;20397;-33
2021/10/31 02:12:26;;;;;;;57.28;34.17;;;5.30;77.50;;;;;;5057731;28;20068;-41
2021/10/31 02:14:53;;;;;;;61.38;35.70;;;5.20;77.40;;;;;;5057574;28;20361;-33
2021/10/31 02:17:20;;;;;;;64.05;36.97;;;5.20;77.20;;;;;;5056992;28;20445;-40
2021/10/31 02:19:47;;;;;;;76.00;41.08;;;5.20;77.10;;;;;;5057761;28;20028;-33
2021/10/31 02:22:34;;;;;;;95.20;61.78;;;5.20;77.00;;;;;;5057058;28;20467;-33
2021/10/31 02:25:00;;;;;;;109.78;66.45;;;5.20;76.90;;;;;;5057859;28;20025;-40
2021/10/31 02:27:31;;;;;;;126.40;81.00;;;5.20;77.10;;;;;;5057345;28;20397;-33
2021/10/31 02:29:58;;;;;;;73.38;42.83;;;5.10;77.10;;;;;;5057397;28;20053;-33
2021/10/31 02:32:27;;;;;;;69.68;40.67;;;5.10;77.10;;;;;;5057224;28;20037;-40
2021/10/31 02:34:54;;;;;;;68.53;39.63;;;5.10;77.00;;;;;;5057464;28;20029;-41
2021/10/31 02:37:21;;;;;;;68.97;42.13;;;5.10;76.90;;;;;;5056813;28;20029;-33
2021/10/31 02:39:47;;;;;;;65.25;37.13;;;5.00;76.80;;;;;;5057334;28;20028;-33
2021/10/31 02:42:13;;;;;;;66.00;37.83;;;5.00;76.90;;;;;;5056835;28;20056;-33
2021/10/31 02:44:39;;;;;;;62.78;37.47;;;5.00;76.90;;;;;;5057191;28;20355;-40
2021/10/31 02:47:08;;;;;;;69.38;40.05;;;5.00;77.00;;;;;;5056704;28;20056;-39
2021/10/31 02:49:36;;;;;;;68.28;38.45;;;4.90;76.90;;;;;;5057154;28;20305;-46
2021/10/31 02:52:13;;;;;;;65.95;37.67;;;4.90;76.90;;;;;;5056647;28;20040;-47
2021/10/31 02:55:09;;;;;;;62.72;36.60;;;4.90;77.10;;;;;;5056807;28;20059;-40
2021/10/31 02:57:54;;;;;;;59.90;33.80;;;4.80;77.20;;;;;;5056058;28;20102;-46
2021/10/31 03:00:21;;;;;;;61.08;37.05;;;4.80;77.40;;;;;;5057000;28;20047;-37
2021/10/31 03:02:48;;;;;;;67.35;39.03;;;4.80;77.50;;;;;;5056421;28;20029;-47
2021/10/31 03:05:14;;;;;;;59.72;32.17;;;4.80;77.40;;;;;;5056927;28;20021;-37
2021/10/31 03:07:40;;;;;;;76.93;40.05;;;4.80;77.50;;;;;;5056450;28;20064;-40
2021/10/31 03:10:06;;;;;;;67.70;37.65;;;4.80;77.50;;;;;;5056701;28;20381;-38
2021/10/31 03:12:32;;;;;;;70.30;38.25;;;4.80;77.50;;;;;;5056101;28;20322;-40
2021/10/31 03:14:58;;;;;;;67.45;37.00;;;4.80;77.50;;;;;;5056788;28;20040;-47
2021/10/31 03:17:24;;;;;;;73.07;40.10;;;4.80;77.40;;;;;;5056326;28;20021;-47
2021/10/31 03:19:50;;;;;;;70.38;38.10;;;4.80;77.30;;;;;;5056387;28;20278;-46
2021/10/31 03:22:16;;;;;;;72.22;39.15;;;4.80;77.30;;;;;;5056001;28;20363;-47
2021/10/31 03:24:41;;;;;;;70.05;37.08;;;4.80;77.20;;;;;;5056427;28;20025;-47
2021/10/31 03:27:07;;;;;;;70.95;36.10;;;4.80;77.20;;;;;;5055987;28;20102;-46
2021/10/31 03:29:34;;;;;;;61.97;35.60;;;4.80;77.10;;;;;;5055534;28;20317;-38
2021/10/31 03:32:00;;;;;;;63.28;35.83;;;4.80;77.20;;;;;;5056019;28;20352;-35
2021/10/31 03:34:26;;;;;;;67.88;37.00;;;4.80;77.20;;;;;;5056213;28;20057;-48
2021/10/31 03:36:51;;;;;;;125.25;76.38;;;4.80;77.00;;;;;;5055707;28;20072;-38
2021/10/31 03:39:18;;;;;;;163.65;107.80;;;4.80;77.10;;;;;;5056186;28;20037;-40
2021/10/31 03:41:46;;;;;;;120.57;76.13;;;4.80;77.00;;;;;;5055593;28;20046;-45
2021/10/31 03:44:14;;;;;;;82.00;47.55;;;4.70;77.00;;;;;;5056240;28;20029;-40
2021/10/31 03:46:41;;;;;;;91.65;50.35;;;4.70;77.00;;;;;;5055393;28;20473;-40
2021/10/31 03:49:07;;;;;;;79.82;44.70;;;4.70;77.00;;;;;;5056135;28;20132;-41
2021/10/31 03:51:34;;;;;;;65.63;39.88;;;4.80;77.20;;;;;;5055414;28;20104;-47
2021/10/31 03:54:00;;;;;;;68.55;41.25;;;4.70;77.10;;;;;;5055803;28;20044;-47
2021/10/31 03:56:26;;;;;;;72.07;39.40;;;4.70;77.20;;;;;;5055323;28;20087;-39
2021/10/31 03:58:52;;;;;;;79.20;39.65;;;4.70;77.20;;;;;;5056000;28;20037;-37
2021/10/31 04:01:18;;;;;;;70.22;37.80;;;4.80;77.30;;;;;;5055933;28;20029;-47
2021/10/31 04:03:44;;;;;;;59.33;35.45;;;4.70;77.30;;;;;;5055660;28;20044;-40
2021/10/31 04:06:12;;;;;;;65.80;35.58;;;4.70;77.30;;;;;;5055872;28;20048;-37
2021/10/31 04:08:40;;;;;;;66.05;37.33;;;4.80;77.20;;;;;;5055536;28;20099;-47
2021/10/31 04:11:06;;;;;;;63.25;33.80;;;4.80;77.10;;;;;;5055431;28;20028;-39
2021/10/31 04:13:33;;;;;;;58.55;35.20;;;4.80;77.10;;;;;;5055467;28;20321;-47
2021/10/31 04:15:58;;;;;;;56.88;33.28;;;4.80;77.00;;;;;;5055732;28;20032;-39
2021/10/31 04:18:24;;;;;;;67.20;37.10;;;4.80;77.00;;;;;;5055327;28;20329;-47
2021/10/31 04:20:50;;;;;;;61.92;38.00;;;4.70;76.90;;;;;;5055238;28;20074;-40
2021/10/31 04:23:15;;;;;;;57.83;33.00;;;4.70;76.90;;;;;;5054972;28;20028;-40
2021/10/31 04:25:41;;;;;;;68.03;37.53;;;4.70;76.90;;;;;;5055817;28;20029;-41
2021/10/31 04:28:07;;;;;;;63.50;34.55;;;4.70;77.00;;;;;;5055242;28;20025;-32
2021/10/31 04:30:33;;;;;;;57.78;32.13;;;4.70;77.00;;;;;;5055506;28;20455;-33
2021/10/31 04:32:58;;;;;;;56.38;33.25;;;4.70;76.90;;;;;;5055079;28;20029;-40
2021/10/31 04:35:24;;;;;;;64.28;35.60;;;4.70;76.90;;;;;;5055183;28;20029;-40
2021/10/31 04:37:52;;;;;;;62.35;33.90;;;4.70;77.00;;;;;;5055316;28;20021;-41
2021/10/31 04:40:21;;;;;;;72.97;39.22;;;4.80;77.10;;;;;;5057153;28;20044;-33
2021/10/31 04:42:47;;;;;;;71.57;37.67;;;4.70;77.00;;;;;;5059114;28;20316;-33
2021/10/31 04:45:13;;;;;;;70.47;39.10;;;4.70;77.00;;;;;;5059562;28;20095;-33
2021/10/31 04:47:39;;;;;;;61.85;35.78;;;4.70;76.90;;;;;;5058877;28;20029;-33
2021/10/31 04:50:05;;;;;;;62.28;35.60;;;4.70;76.90;;;;;;5059204;28;20380;-40
2021/10/31 04:52:31;;;;;;;68.70;38.63;;;4.70;76.90;;;;;;5058795;28;20061;-40
2021/10/31 04:54:57;;;;;;;65.40;36.67;;;4.60;77.10;;;;;;5058950;28;20131;-33
2021/10/31 04:57:23;;;;;;;75.20;41.47;;;4.60;77.20;;;;;;5058624;28;20485;-40
2021/10/31 04:59:49;;;;;;;61.80;34.78;;;4.60;77.20;;;;;;5059101;28;20029;-40
2021/10/31 05:02:14;;;;;;;65.82;35.80;;;4.60;77.30;;;;;;5058926;28;20120;-36
2021/10/31 05:04:40;;;;;;;68.07;38.05;;;4.60;77.30;;;;;;5058730;28;20025;-40
2021/10/31 05:07:06;;;;;;;62.83;36.78;;;4.60;77.30;;;;;;5058642;28;20032;-33
2021/10/31 05:09:31;;;;;;;64.38;35.17;;;4.60;77.30;;;;;;5059058;28;20056;-32
2021/10/31 05:11:57;;;;;;;63.60;36.72;;;4.70;77.50;;;;;;5058624;28;20037;-32
2021/10/31 05:14:23;;;;;;;66.15;37.55;;;4.70;77.40;;;;;;5058866;28;20082;-33
2021/10/31 05:16:48;;;;;;;73.55;38.58;;;4.70;77.40;;;;;;5058052;28;20032;-40
2021/10/31 05:19:15;;;;;;;61.75;36.80;;;4.70;77.50;;;;;;5058607;28;20087;-40
2021/10/31 05:21:41;;;;;;;66.63;36.92;;;4.70;77.50;;;;;;5058178;28;20060;-40
2021/10/31 05:24:06;;;;;;;70.30;37.45;;;4.70;77.60;;;;;;5058682;28;20057;-33
2021/10/31 05:26:32;;;;;;;68.95;37.25;;;4.80;77.70;;;;;;5058309;28;20075;-40
2021/10/31 05:28:58;;;;;;;67.15;38.03;;;4.80;77.70;;;;;;5058475;28;20449;-32
2021/10/31 05:31:24;;;;;;;75.43;37.53;;;4.80;77.80;;;;;;5057969;28;20426;-40
2021/10/31 05:33:51;;;;;;;73.45;39.70;;;4.90;77.80;;;;;;5058210;28;20041;-44
2021/10/31 05:36:17;;;;;;;68.68;36.22;;;4.90;78.00;;;;;;5058487;28;20040;-33
2021/10/31 05:38:42;;;;;;;63.58;34.13;;;4.90;78.20;;;;;;5058189;28;20372;-39
2021/10/31 05:41:08;;;;;;;70.22;37.05;;;5.00;78.30;;;;;;5058363;28;20061;-32
2021/10/31 05:43:34;;;;;;;99.45;46.30;;;5.00;78.30;;;;;;5057742;28;20055;-41
2021/10/31 05:46:00;;;;;;;100.28;45.38;;;5.10;78.50;;;;;;5058133;28;20456;-32
2021/10/31 05:48:26;;;;;;;91.03;47.63;;;5.20;78.60;;;;;;5057596;28;20017;-32
2021/10/31 05:50:56;;;;;;;108.90;46.65;;;5.20;78.60;;;;;;5057865;28;20028;-40
2021/10/31 05:53:23;;;;;;;121.85;58.80;;;5.30;78.70;;;;;;5057061;28;20060;-32
2021/10/31 05:55:50;;;;;;;171.85;61.67;;;5.40;78.90;;;;;;5057702;28;20049;-40
2021/10/31 05:58:15;;;;;;;122.57;55.40;;;5.40;79.00;;;;;;5057879;28;20048;-33
2021/10/31 06:00:41;;;;;;;121.25;54.30;;;5.50;79.30;;;;;;5058186;28;20032;-41
2021/10/31 06:03:07;;;;;;;119.57;57.20;;;5.60;79.40;;;;;;5057688;28;20116;-33
2021/10/31 06:05:33;;;;;;;112.63;53.75;;;5.70;79.60;;;;;;5058174;28;20287;-40
2021/10/31 06:07:59;;;;;;;106.30;51.40;;;5.70;79.70;;;;;;5057431;28;20052;-40
2021/10/31 06:10:25;;;;;;;95.38;46.20;;;5.80;79.90;;;;;;5057883;28;20457;-40
2021/10/31 06:12:51;;;;;;;81.20;40.60;;;5.90;80.10;;;;;;5057671;28;20108;-40
2021/10/31 06:15:20;;;;;;;82.35;40.83;;;6.00;80.20;;;;;;5057955;28;20036;-33
2021/10/31 06:17:46;;;;;;;74.63;39.47;;;6.10;80.30;;;;;;5057319;28;20024;-41
2021/10/31 06:20:14;;;;;;;77.85;39.70;;;6.20;80.50;;;;;;5054905;28;20410;-40
2021/10/31 06:22:40;;;;;;;79.55;40.08;;;6.30;80.80;;;;;;5056989;28;20025;-40
2021/10/31 06:25:10;;;;;;;71.07;38.30;;;6.40;81.00;;;;;;5057353;28;20033;-40
2021/10/31 06:27:36;;;;;;;77.00;41.50;;;6.50;81.30;;;;;;5056914;28;20433;-40
2021/10/31 06:30:03;;;;;;;81.47;42.63;;;6.60;81.40;;;;;;5057396;28;20044;-40
2021/10/31 06:32:28;;;;;;;79.82;43.58;;;6.70;81.80;;;;;;5053088;28;20413;-33
2021/10/31 06:34:54;;;;;;;87.55;45.10;;;6.80;82.10;;;;;;5037224;28;20048;-33
2021/10/31 06:37:20;;;;;;;73.93;42.58;;;6.90;82.40;;;;;;5036729;28;20044;-39
2021/10/31 06:39:46;;;;;;;84.60;47.78;;;7.00;82.60;;;;;;5041556;28;20037;-33
2021/10/31 06:42:12;;;;;;;111.25;64.82;;;7.10;82.80;;;;;;5043337;28;20087;-34
2021/10/31 06:44:38;;;;;;;101.65;58.45;;;7.20;83.00;;;;;;5036775;28;20026;-33
2021/10/31 06:47:04;;;;;;;81.88;46.05;;;7.30;83.10;;;;;;5047485;28;20032;-40
2021/10/31 06:49:30;;;;;;;72.90;43.00;;;7.40;83.10;;;;;;5056652;28;20048;-33
2021/10/31 06:51:56;;;;;;;70.95;37.78;;;7.50;83.00;;;;;;5055411;28;20409;-34
2021/10/31 06:54:22;;;;;;;74.32;40.30;;;7.60;82.90;;;;;;5056627;28;20370;-41
2021/10/31 06:56:48;;;;;;;80.72;43.00;;;7.70;82.90;;;;;;5056165;28;20139;-33
2021/10/31 06:59:14;;;;;;;61.33;35.95;;;7.80;82.90;;;;;;5049017;28;20068;-40
2021/10/31 07:01:39;;;;;;;61.40;36.53;;;7.90;82.60;;;;;;5040475;28;20033;-41
2021/10/31 07:04:07;;;;;;;55.40;32.85;;;8.00;82.40;;;;;;5043445;28;20048;-41
2021/10/31 07:06:34;;;;;;;62.10;35.75;;;8.10;82.30;;;;;;5038343;28;20397;-42
2021/10/31 07:09:00;;;;;;;57.60;33.65;;;8.20;82.30;;;;;;5036544;28;20120;-32
2021/10/31 07:11:25;;;;;;;55.63;31.48;;;8.30;82.10;;;;;;5035959;28;20033;-41
2021/10/31 07:13:51;;;;;;;50.08;30.90;;;8.30;82.00;;;;;;5046063;28;20037;-42
2021/10/31 07:16:17;;;;;;;54.45;33.10;;;8.50;81.90;;;;;;5056313;28;20090;-41
2021/10/31 07:18:43;;;;;;;49.60;30.77;;;8.50;81.90;;;;;;5056082;28;20045;-40
2021/10/31 07:21:08;;;;;;;45.75;27.52;;;8.60;81.60;;;;;;5055989;28;20033;-32
2021/10/31 07:23:34;;;;;;;45.30;27.17;;;8.70;81.30;;;;;;5055810;28;20429;-41
2021/10/31 07:26:00;;;;;;;45.20;27.00;;;8.80;80.90;;;;;;5055564;28;20406;-40
2021/10/31 07:28:26;;;;;;;45.13;25.55;;;8.90;80.70;;;;;;5055821;28;20127;-41
2021/10/31 07:30:53;;;;;;;42.85;25.83;;;9.00;80.40;;;;;;5055790;28;20029;-40
2021/10/31 07:33:18;;;;;;;45.08;27.73;;;9.00;80.00;;;;;;5055963;28;20106;-33
2021/10/31 07:35:45;;;;;;;43.83;27.90;;;9.20;79.90;;;;;;5056309;28;20412;-40
2021/10/31 07:38:11;;;;;;;46.80;27.65;;;9.20;79.90;;;;;;5055932;28;20029;-39
2021/10/31 07:40:37;;;;;;;47.30;28.05;;;9.30;80.00;;;;;;5055407;28;20036;-41
2021/10/31 07:43:04;;;;;;;52.08;31.13;;;9.40;80.00;;;;;;5055819;28;20036;-41
2021/10/31 07:45:31;;;;;;;54.47;29.58;;;9.40;80.00;;;;;;5055515;28;20091;-34
2021/10/31 07:47:57;;;;;;;42.47;27.13;;;9.50;80.00;;;;;;5055614;28;20025;-33
2021/10/31 07:50:22;;;;;;;43.20;27.25;;;9.60;79.90;;;;;;5055565;28;20155;-33
2021/10/31 07:52:48;;;;;;;45.15;26.98;;;9.60;79.70;;;;;;5055639;28;20057;-32
2021/10/31 07:55:18;;;;;;;41.30;26.38;;;9.70;79.60;;;;;;5055555;28;20500;-33
2021/10/31 07:57:46;;;;;;;44.75;27.58;;;9.80;79.40;;;;;;5054826;28;20090;-33
2021/10/31 08:00:12;;;;;;;46.38;28.20;;;9.80;79.20;;;;;;5055912;28;20037;-41
2021/10/31 08:02:38;;;;;;;45.90;28.50;;;9.90;79.20;;;;;;5054957;28;20061;-41
2021/10/31 08:05:04;;;;;;;41.60;25.48;;;10.00;79.20;;;;;;5055912;28;20063;-33
2021/10/31 08:07:30;;;;;;;42.17;26.70;;;10.00;79.10;;;;;;5055136;28;20025;-34
2021/10/31 08:09:58;;;;;;;46.78;26.83;;;10.10;79.10;;;;;;5055691;28;20386;-41
2021/10/31 08:12:28;;;;;;;45.25;28.15;;;10.10;79.00;;;;;;5054798;28;20120;-34
2021/10/31 08:14:54;;;;;;;44.70;27.55;;;10.20;79.00;;;;;;5055350;28;20349;-41
2021/10/31 08:17:19;;;;;;;42.40;25.98;;;10.30;79.00;;;;;;5055009;28;20029;-35
2021/10/31 08:19:45;;;;;;;45.92;27.60;;;10.30;78.90;;;;;;5055606;28;20374;-34
2021/10/31 08:22:11;;;;;;;42.92;27.33;;;10.40;78.80;;;;;;5055184;28;20036;-34
2021/10/31 08:24:37;;;;;;;42.67;27.17;;;10.40;78.70;;;;;;5055353;28;20302;-41
2021/10/31 08:27:02;;;;;;;45.35;28.00;;;10.50;78.50;;;;;;5055207;28;20025;-41
2021/10/31 08:29:28;;;;;;;44.22;26.80;;;10.50;78.40;;;;;;5055077;28;20031;-42
2021/10/31 08:31:55;;;;;;;47.38;28.70;;;10.50;78.50;;;;;;5054437;28;20036;-35
2021/10/31 08:34:22;;;;;;;50.03;29.90;;;10.60;78.50;;;;;;5055601;28;20116;-33
2021/10/31 08:36:49;;;;;;;43.50;27.42;;;10.60;78.40;;;;;;5054856;28;20155;-40
2021/10/31 08:39:15;;;;;;;46.22;28.92;;;10.60;78.30;;;;;;5055163;28;20041;-33
2021/10/31 08:41:41;;;;;;;49.25;29.35;;;10.70;78.30;;;;;;5054817;28;20045;-33
2021/10/31 08:44:07;;;;;;;70.00;39.95;;;10.70;78.20;;;;;;5055073;28;20139;-41
2021/10/31 08:46:34;;;;;;;133.95;73.45;;;10.70;78.00;;;;;;5054358;28;20029;-33
2021/10/31 08:49:00;;;;;;;118.72;64.30;;;10.70;78.10;;;;;;5054929;28;20033;-40
2021/10/31 08:51:27;;;;;;;116.65;65.40;;;10.80;77.90;;;;;;5053599;28;20112;-41
2021/10/31 08:53:54;;;;;;;56.85;36.53;;;10.90;77.60;;;;;;5054884;28;20033;-41
2021/10/31 08:56:22;;;;;;;49.40;27.92;;;10.90;77.30;;;;;;5054649;28;20057;-34
2021/10/31 08:58:49;;;;;;;52.75;32.60;;;10.90;76.80;;;;;;5054709;28;20086;-34
2021/10/31 09:01:15;;;;;;;48.40;33.20;;;10.90;76.60;;;;;;5054878;28;20033;-34
2021/10/31 09:03:41;;;;;;;54.78;32.75;;;11.00;76.40;;;;;;5054572;28;20071;-32
2021/10/31 09:06:11;;;;;;;68.15;43.00;;;11.00;76.30;;;;;;5054739;28;20118;-41
2021/10/31 09:08:38;;;;;;;47.25;28.00;;;11.00;76.20;;;;;;5054522;28;20017;-34
2021/10/31 09:11:04;;;;;;;50.97;30.85;;;11.10;76.20;;;;;;5054655;28;20194;-34
2021/10/31 09:13:30;;;;;;;56.92;31.40;;;11.10;76.00;;;;;;5054697;28;20112;-41
2021/10/31 09:15:55;;;;;;;41.85;26.30;;;11.10;75.80;;;;;;5054873;28;20313;-41
2021/10/31 09:18:21;;;;;;;40.60;25.38;;;11.10;75.70;;;;;;5054431;28;20025;-34
2021/10/31 09:20:48;;;;;;;42.53;26.58;;;11.20;75.70;;;;;;5054956;28;20102;-41
2021/10/31 09:23:14;;;;;;;41.42;26.30;;;11.20;75.60;;;;;;5054841;28;20096;-34
2021/10/31 09:25:40;;;;;;;42.92;26.73;;;11.20;75.60;;;;;;5053707;28;20037;-33
2021/10/31 09:28:06;;;;;;;39.25;24.38;;;11.30;75.50;;;;;;5056987;28;20029;-36
2021/10/31 09:30:38;;;;;;;41.90;25.15;;;11.30;75.40;;;;;;5058401;28;20025;-42
2021/10/31 09:33:04;;;;;;;37.90;23.65;;;11.30;75.30;;;;;;5058143;28;20075;-34
2021/10/31 09:35:33;;;;;;;38.10;23.63;;;11.30;75.10;;;;;;5057895;28;20377;-35
2021/10/31 09:38:05;;;;;;;34.10;22.02;;;11.40;74.90;;;;;;5057772;28;20033;-34
2021/10/31 09:40:32;;;;;;;39.58;24.13;;;11.40;75.00;;;;;;5058336;28;20316;-40
2021/10/31 09:43:00;;;;;;;42.42;27.20;;;11.40;74.80;;;;;;5057749;28;20029;-33
2021/10/31 09:45:30;;;;;;;40.78;24.10;;;11.50;74.60;;;;;;5058069;28;20424;-41
2021/10/31 09:48:02;;;;;;;39.57;25.87;;;11.50;74.60;;;;;;5057526;28;20033;-40
2021/10/31 09:50:32;;;;;;;40.78;26.98;;;11.50;74.40;;;;;;5056681;28;20045;-33
2021/10/31 09:53:00;;;;;;;44.30;25.38;;;11.50;74.10;;;;;;5057855;28;20028;-40
2021/10/31 09:55:26;;;;;;;39.55;24.48;;;11.60;74.10;;;;;;5057584;28;20136;-41
2021/10/31 09:57:52;;;;;;;38.13;24.65;;;11.60;74.00;;;;;;5057681;28;20028;-41
2021/10/31 10:00:21;;;;;;;49.17;26.10;;;11.70;73.80;;;;;;5057925;28;20375;-40
2021/10/31 10:05:20;;;;;;;44.45;27.42;;;11.70;73.50;;;;;;5054538;28;20329;-41
2021/10/31 10:07:47;;;;;;;42.13;26.25;;;11.80;73.40;;;;;;5057514;28;20377;-34
2021/10/31 10:10:14;;;;;;;44.20;25.63;;;11.80;73.30;;;;;;5057553;28;20112;-34
2021/10/31 10:12:40;;;;;;;44.92;27.20;;;11.80;73.20;;;;;;5057027;28;20037;-41
2021/10/31 10:15:11;;;;;;;42.55;27.10;;;11.90;73.30;;;;;;5057536;28;20041;-41
2021/10/31 10:17:48;;;;;;;48.28;29.35;;;11.90;73.30;;;;;;5057013;28;20037;-40
2021/10/31 10:20:16;;;;;;;46.38;29.83;;;12.00;73.30;;;;;;5057357;28;20037;-34
2021/10/31 10:22:43;;;;;;;49.45;32.90;;;12.00;73.30;;;;;;5056653;28;20040;-33
2021/10/31 10:25:09;;;;;;;60.63;34.70;;;12.00;73.20;;;;;;5057204;28;20433;-41
2021/10/31 10:27:53;;;;;;;61.97;38.20;;;12.10;73.10;;;;;;5056545;28;20048;-41
2021/10/31 10:30:23;;;;;;;77.93;47.72;;;12.10;73.20;;;;;;5057017;28;20112;-41
2021/10/31 10:32:55;;;;;;;75.05;48.42;;;12.10;73.40;;;;;;5056353;28;20412;-34
2021/10/31 10:35:23;;;;;;;78.85;49.92;;;12.20;73.60;;;;;;5056397;28;20421;-34
2021/10/31 10:37:50;;;;;;;78.40;47.83;;;12.20;73.60;;;;;;5056437;28;20029;-34
2021/10/31 10:40:23;;;;;;;67.05;43.22;;;12.20;73.60;;;;;;5056572;28;20037;-35
2021/10/31 10:42:52;;;;;;;81.45;46.22;;;12.20;73.40;;;;;;5056676;28;20112;-34
2021/10/31 10:45:40;;;;;;;78.18;40.83;;;12.30;73.40;;;;;;5056977;28;20127;-41
2021/10/31 10:48:08;;;;;;;63.88;38.45;;;12.30;72.90;;;;;;5056702;28;20318;-33
2021/10/31 10:50:42;;;;;;;63.45;39.10;;;12.30;72.70;;;;;;5056890;28;20400;-34
2021/10/31 10:53:19;;;;;;;78.43;49.45;;;12.40;72.20;;;;;;5056294;28;20592;-34
2021/10/31 10:55:45;;;;;;;68.88;42.10;;;12.40;71.90;;;;;;5056557;28;20053;-34
2021/10/31 10:58:16;;;;;;;73.68;44.63;;;12.50;72.00;;;;;;5056304;28;20025;-33
2021/10/31 11:00:52;;;;;;;63.38;40.05;;;12.50;71.70;;;;;;5056769;28;20036;-34
2021/10/31 11:03:21;;;;;;;61.35;36.70;;;12.60;71.60;;;;;;5056391;28;20021;-33
2021/10/31 11:05:47;;;;;;;65.10;39.97;;;12.60;71.40;;;;;;5056609;28;20095;-34
2021/10/31 11:08:15;;;;;;;68.05;41.47;;;12.70;71.30;;;;;;5055924;28;20033;-34
2021/10/31 11:10:45;;;;;;;65.38;36.22;;;12.80;70.90;;;;;;5056365;28;20053;-35
2021/10/31 11:13:11;;;;;;;57.42;34.90;;;12.90;70.60;;;;;;5055938;28;20429;-34
2021/10/31 11:15:37;;;;;;;53.10;34.35;;;12.90;70.40;;;;;;5056566;28;20318;-33
2021/10/31 11:18:05;;;;;;;64.88;37.78;;;13.00;70.20;;;;;;5056073;28;20021;-35
2021/10/31 11:20:37;;;;;;;54.72;32.75;;;13.00;69.80;;;;;;5055046;28;20036;-34
2021/10/31 11:23:09;;;;;;;50.65;30.63;;;13.10;69.10;;;;;;5055472;28;20047;-34
2021/10/31 11:25:38;;;;;;;38.33;24.90;;;13.20;68.60;;;;;;5056331;28;20263;-33
2021/10/31 11:28:06;;;;;;;38.47;25.70;;;13.20;68.20;;;;;;5055732;28;20052;-34
2021/10/31 11:30:33;;;;;;;39.13;25.88;;;13.30;67.70;;;;;;5056246;28;20029;-41
2021/10/31 11:33:00;;;;;;;36.80;24.80;;;13.30;67.40;;;;;;5055716;28;20110;-41
2021/10/31 11:35:28;;;;;;;39.03;25.60;;;13.40;67.10;;;;;;5056176;28;20033;-41
2021/10/31 11:38:04;;;;;;;38.95;24.58;;;13.40;66.70;;;;;;5055683;28;20033;-41
2021/10/31 11:40:37;;;;;;;37.78;24.15;;;13.40;66.40;;;;;;5056218;28;20036;-41
2021/10/31 11:43:13;;;;;;;34.92;23.20;;;13.40;66.30;;;;;;5055564;28;20325;-41
2021/10/31 11:45:42;;;;;;;35.50;22.33;;;13.50;66.10;;;;;;5055997;28;20409;-41
2021/10/31 11:48:18;;;;;;;35.63;21.80;;;13.50;66.10;;;;;;5055488;28;20033;-41
2021/10/31 11:50:59;;;;;;;31.95;21.30;;;13.50;65.30;;;;;;5055202;28;20417;-33
2021/10/31 11:53:27;;;;;;;35.20;21.98;;;13.50;65.50;;;;;;5055510;28;20029;-33
2021/10/31 11:55:54;;;;;;;36.42;22.55;;;13.50;65.50;;;;;;5055430;28;20259;-40
2021/10/31 11:58:23;;;;;;;35.35;21.48;;;13.60;65.50;;;;;;5055330;28;20421;-33
2021/10/31 12:00:54;;;;;;;31.00;21.75;;;13.70;65.30;;;;;;5054285;28;20029;-41
2021/10/31 12:03:46;;;;;;;38.28;21.20;;;13.80;65.10;;;;;;5055585;28;20059;-34
2021/10/31 12:06:14;;;;;;;35.42;22.13;;;13.90;64.80;;;;;;5055562;28;20041;-41
2021/10/31 12:08:53;;;;;;;46.35;28.95;;;14.10;64.80;;;;;;5055246;28;20025;-34
2021/10/31 12:11:39;;;;;;;36.63;21.98;;;14.20;64.20;;;;;;5055489;28;20095;-41
2021/10/31 12:14:07;;;;;;;41.35;26.63;;;14.30;64.10;;;;;;5054905;28;20055;-41
2021/10/31 12:17:05;;;;;;;37.40;26.45;;;14.50;63.50;;;;;;5053416;28;20067;-42
2021/10/31 12:19:42;;;;;;;35.13;22.10;;;14.60;63.00;;;;;;5052393;28;20117;-33
2021/10/31 12:22:28;;;;;;;31.90;22.60;;;14.70;62.30;;;;;;5055366;28;20075;-33
2021/10/31 12:24:59;;;;;;;29.85;18.92;;;14.80;62.10;;;;;;5055350;28;20029;-33
2021/10/31 12:27:38;;;;;;;30.05;18.35;;;14.90;61.80;;;;;;5055182;28;20029;-41
2021/10/31 12:30:23;;;;;;;31.33;18.52;;;15.00;61.60;;;;;;5055092;28;20503;-33
2021/10/31 12:32:59;;;;;;;29.98;17.80;;;15.20;60.90;;;;;;5054851;28;20035;-34
2021/10/31 12:35:38;;;;;;;25.73;16.60;;;15.30;61.20;;;;;;5055557;28;20079;-33
2021/10/31 12:38:15;;;;;;;26.27;16.90;;;15.40;60.50;;;;;;5055137;28;20104;-41
2021/10/31 12:41:02;;;;;;;25.67;16.98;;;15.50;60.00;;;;;;5054991;28;20098;-40
2021/10/31 12:43:45;;;;;;;26.25;17.65;;;15.70;59.70;;;;;;5054463;28;20037;-41
2021/10/31 12:46:16;;;;;;;24.42;15.85;;;15.80;58.80;;;;;;5054176;28;20039;-36